Time;durP1;ratioP1;P1;durP2;ratioP2;P2;SDS_P1;SDS_P2;PMS_P1;PMS_P2;Temp;Humidity;BMP_temperature;BMP_pressure;BME280_temperature;BME280_humidity;BME280_pressure;Samples;Min_cycle;Max_cycle;Signal;HPM_P1;HPM_P2
2023/07/05 00:01:22;;;;;;;9.33;4.40;;;12.70;43.20;;;;;;5030413;28;20561;-58
2023/07/05 00:03:50;;;;;;;8.50;4.93;;;12.60;37.10;;;;;;5029421;28;21071;-57
2023/07/05 00:06:16;;;;;;;6.30;4.80;;;12.60;43.40;;;;;;5021763;28;21096;-58
2023/07/05 00:08:43;;;;;;;13.87;4.60;;;12.60;42.90;;;;;;5031961;28;20538;-57
2023/07/05 00:11:11;;;;;;;6.63;4.30;;;12.60;43.60;;;;;;5030004;28;20498;-57
2023/07/05 00:13:39;;;;;;;13.50;5.33;;;12.50;40.80;;;;;;5027774;28;20466;-58
2023/07/05 00:16:06;;;;;;;9.67;4.77;;;12.50;40.50;;;;;;5029577;28;20898;-58
2023/07/05 00:18:33;;;;;;;5.33;3.77;;;12.50;35.80;;;;;;5029542;28;20601;-58
2023/07/05 00:21:01;;;;;;;10.20;4.50;;;12.60;37.50;;;;;;5030113;28;20470;-58
2023/07/05 00:23:27;;;;;;;4.93;3.60;;;12.50;36.80;;;;;;5028931;28;20470;-58
2023/07/05 00:25:54;;;;;;;7.60;4.00;;;12.60;41.70;;;;;;5028258;28;20485;-57
2023/07/05 00:28:20;;;;;;;8.17;4.50;;;12.60;35.20;;;;;;5028211;28;20956;-56
2023/07/05 00:30:49;;;;;;;13.20;4.43;;;12.60;42.10;;;;;;5029271;28;20499;-58
2023/07/05 00:33:15;;;;;;;7.70;4.30;;;12.60;35.50;;;;;;5028480;28;20466;-57
2023/07/05 00:35:47;;;;;;;6.53;4.13;;;12.70;28.60;;;;;;5028244;28;20561;-59
2023/07/05 00:38:14;;;;;;;6.17;4.10;;;12.70;37.50;;;;;;5022184;28;20497;-58
2023/07/05 00:40:41;;;;;;;7.53;3.90;;;12.70;39.40;;;;;;5028907;28;20498;-57
2023/07/05 00:43:08;;;;;;;10.23;4.20;;;12.70;40.20;;;;;;5027356;28;20490;-58
2023/07/05 00:45:53;;;;;;;8.03;3.60;;;12.70;36.00;;;;;;5029826;28;20545;-58
2023/07/05 00:48:24;;;;;;;7.30;4.10;;;12.80;30.70;;;;;;5027974;28;20451;-57
2023/07/05 00:50:55;;;;;;;7.83;4.50;;;12.80;40.00;;;;;;5026940;28;20490;-57
2023/07/05 00:53:23;;;;;;;8.67;4.37;;;12.80;40.60;;;;;;5027836;28;20513;-58
2023/07/05 00:55:54;;;;;;;9.90;4.93;;;12.70;40.60;;;;;;5032078;28;20549;-58
2023/07/05 00:58:24;;;;;;;5.77;3.93;;;12.80;37.40;;;;;;5024712;28;20578;-58
2023/07/05 01:00:53;;;;;;;8.70;4.90;;;12.80;40.60;;;;;;5028398;28;20494;-57
2023/07/05 01:03:20;;;;;;;10.30;4.53;;;12.80;38.40;;;;;;5029366;28;20488;-58
2023/07/05 01:05:49;;;;;;;6.47;4.40;;;12.70;41.50;;;;;;5027937;28;20463;-58
2023/07/05 01:08:16;;;;;;;7.20;4.23;;;12.70;38.10;;;;;;5018829;28;20630;-57
2023/07/05 01:10:47;;;;;;;9.13;4.07;;;12.70;44.00;;;;;;5025137;28;20554;-58
2023/07/05 01:13:19;;;;;;;9.83;4.97;;;12.70;39.90;;;;;;5025234;28;20498;-58
2023/07/05 01:15:51;;;;;;;6.53;3.97;;;12.70;40.20;;;;;;5029221;28;20494;-57
2023/07/05 01:18:25;;;;;;;8.50;4.27;;;12.70;42.10;;;;;;5028970;28;20482;-59
2023/07/05 01:21:01;;;;;;;7.27;4.20;;;12.90;47.60;;;;;;5025619;28;20496;-58
2023/07/05 01:23:45;;;;;;;10.57;3.63;;;13.00;64.80;;;;;;5019977;28;20566;-58
2023/07/05 01:26:34;;;;;;;7.10;3.83;;;13.10;69.70;;;;;;5031112;28;20497;-59
2023/07/05 01:29:34;;;;;;;9.57;3.80;;;13.20;67.20;;;;;;5030428;28;20505;-58
2023/07/05 01:32:10;;;;;;;5.87;3.60;;;13.30;68.30;;;;;;5030522;28;20478;-57
2023/07/05 01:34:43;;;;;;;11.60;3.87;;;13.30;65.90;;;;;;5030403;28;20447;-58
2023/07/05 01:37:24;;;;;;;13.53;3.80;;;13.40;66.40;;;;;;5038198;28;20470;-57
2023/07/05 01:39:51;;;;;;;6.60;4.03;;;13.40;69.70;;;;;;5027761;28;20474;-58
2023/07/05 01:42:17;;;;;;;5.03;3.53;;;13.50;82.40;;;;;;5030387;28;20906;-58
2023/07/05 01:44:44;;;;;;;6.80;3.43;;;13.50;71.90;;;;;;5030988;28;20471;-58
2023/07/05 01:47:16;;;;;;;8.10;4.00;;;13.60;84.80;;;;;;5028989;28;20906;-58
2023/07/05 01:49:54;;;;;;;15.00;4.13;;;13.60;86.10;;;;;;5036609;28;20544;-58
2023/07/05 01:52:31;;;;;;;8.80;4.03;;;13.60;90.80;;;;;;5035587;28;20552;-58
2023/07/05 01:55:05;;;;;;;7.20;4.00;;;13.60;82.80;;;;;;5034013;28;20493;-58
2023/07/05 01:57:36;;;;;;;10.00;3.90;;;13.60;84.50;;;;;;5033181;28;20973;-58
2023/07/05 02:00:07;;;;;;;9.23;3.40;;;13.60;89.60;;;;;;5035946;28;21007;-57
2023/07/05 02:02:38;;;;;;;8.57;3.93;;;13.60;85.50;;;;;;5035425;28;20493;-58
2023/07/05 02:05:07;;;;;;;7.20;3.80;;;13.60;87.50;;;;;;5036473;28;20490;-58
2023/07/05 02:07:34;;;;;;;7.07;4.10;;;13.60;88.50;;;;;;5029055;28;20544;-57
2023/07/05 02:10:01;;;;;;;6.83;3.53;;;13.70;91.50;;;;;;5023764;28;20451;-58
2023/07/05 02:12:29;;;;;;;7.40;3.53;;;13.70;99.90;;;;;;5046459;22;20530;-52
2023/07/05 02:14:56;;;;;;;16.17;4.23;;;13.80;99.90;;;;;;5031828;28;20505;-52
2023/07/05 02:17:23;;;;;;;8.30;4.30;;;13.90;99.90;;;;;;5036280;28;20497;-52
2023/07/05 02:19:51;;;;;;;8.97;4.07;;;13.90;99.90;;;;;;5026456;28;20569;-52
2023/07/05 02:22:19;;;;;;;10.33;4.20;;;13.90;99.90;;;;;;5032220;28;20482;-51
2023/07/05 02:24:45;;;;;;;13.97;5.00;;;14.00;99.90;;;;;;5028521;28;20470;-51
2023/07/05 02:27:12;;;;;;;9.47;3.40;;;14.00;99.90;;;;;;5023375;28;20498;-51
2023/07/05 02:29:38;;;;;;;7.07;4.50;;;14.00;99.90;;;;;;5020832;28;20979;-52
2023/07/05 02:32:06;;;;;;;10.40;4.00;;;14.00;99.90;;;;;;5038829;28;20573;-52
2023/07/05 02:34:32;;;;;;;11.70;5.10;;;14.10;99.90;;;;;;5037413;28;20876;-52
2023/07/05 02:37:00;;;;;;;8.50;3.73;;;14.10;99.90;;;;;;5032311;28;20490;-52
2023/07/05 02:39:27;;;;;;;6.80;3.63;;;14.10;99.90;;;;;;5031136;28;20630;-53
2023/07/05 02:41:53;;;;;;;6.97;4.00;;;14.10;99.90;;;;;;5035966;28;21061;-51
2023/07/05 02:44:20;;;;;;;13.27;3.80;;;14.10;99.90;;;;;;5021810;28;20580;-51
2023/07/05 02:46:46;;;;;;;5.90;3.50;;;14.10;99.90;;;;;;5020590;28;20490;-53
2023/07/05 02:49:13;;;;;;;8.13;3.87;;;14.10;99.90;;;;;;5034048;28;20994;-52
2023/07/05 02:51:40;;;;;;;9.73;3.80;;;14.20;99.90;;;;;;5035944;28;20479;-53
2023/07/05 02:54:08;;;;;;;15.40;4.30;;;14.20;99.90;;;;;;5026449;28;20481;-52
2023/07/05 02:56:35;;;;;;;7.47;4.00;;;14.30;99.90;;;;;;5033239;28;20467;-52
2023/07/05 02:59:01;;;;;;;7.90;4.03;;;14.30;99.90;;;;;;5033617;28;20518;-52
2023/07/05 03:01:28;;;;;;;7.63;4.07;;;14.30;99.90;;;;;;5025982;28;20478;-52
2023/07/05 03:03:54;;;;;;;10.03;4.47;;;14.30;99.90;;;;;;5025220;28;20558;-52
2023/07/05 03:06:21;;;;;;;6.70;4.07;;;14.40;99.90;;;;;;5032960;28;20505;-52
2023/07/05 03:08:48;;;;;;;9.70;4.00;;;14.40;99.90;;;;;;5031245;28;20486;-52
2023/07/05 03:11:16;;;;;;;8.47;4.10;;;14.40;99.90;;;;;;5033513;28;21009;-52
2023/07/05 03:13:43;;;;;;;9.47;4.33;;;14.40;99.90;;;;;;5031350;28;20509;-52
2023/07/05 03:16:09;;;;;;;11.53;4.40;;;14.40;99.90;;;;;;5033010;28;20477;-52
2023/07/05 03:18:36;;;;;;;7.00;4.50;;;14.40;99.90;;;;;;5031262;28;20514;-50
2023/07/05 03:21:02;;;;;;;10.33;3.50;;;14.40;99.90;;;;;;5043251;28;20469;-53
2023/07/05 03:23:29;;;;;;;16.90;4.60;;;14.30;99.90;;;;;;5031430;28;21050;-51
2023/07/05 03:25:57;;;;;;;8.77;4.67;;;14.30;99.90;;;;;;5037688;28;20493;-52
2023/07/05 03:28:26;;;;;;;13.27;4.07;;;14.30;99.90;;;;;;5032983;28;20474;-51
2023/07/05 03:30:56;;;;;;;4.20;3.77;;;14.40;99.90;;;;;;5021572;28;20532;-52
2023/07/05 03:33:23;;;;;;;6.33;3.60;;;14.30;99.90;;;;;;5026365;28;20480;-51
2023/07/05 03:35:54;;;;;;;6.67;4.03;;;14.40;99.90;;;;;;5024504;28;20446;-51
2023/07/05 03:38:21;;;;;;;8.53;4.10;;;14.30;99.90;;;;;;5028002;28;20499;-52
2023/07/05 03:40:55;;;;;;;10.50;3.90;;;14.40;99.90;;;;;;5025692;28;21178;-51
2023/07/05 03:43:22;;;;;;;6.70;3.40;;;14.40;99.90;;;;;;5026559;28;20554;-51
2023/07/05 03:45:50;;;;;;;8.80;3.93;;;14.40;99.90;;;;;;5040381;28;20466;-51
2023/07/05 03:48:17;;;;;;;11.30;4.23;;;14.40;99.90;;;;;;5028058;28;21032;-51
2023/07/05 03:50:43;;;;;;;7.27;4.07;;;14.50;99.90;;;;;;5021312;28;20949;-52
2023/07/05 03:53:10;;;;;;;6.47;3.40;;;14.50;99.90;;;;;;5027602;28;20517;-53
2023/07/05 03:55:37;;;;;;;12.13;4.67;;;14.60;99.90;;;;;;5030620;28;20463;-52
2023/07/05 03:58:03;;;;;;;9.73;4.40;;;14.60;99.90;;;;;;5027883;28;21000;-52
2023/07/05 04:00:30;;;;;;;15.00;4.40;;;14.60;99.90;;;;;;5030732;28;20501;-52
2023/07/05 04:02:58;;;;;;;6.83;4.40;;;14.70;99.90;;;;;;5025275;28;20518;-52
2023/07/05 04:05:24;;;;;;;7.10;4.30;;;14.70;99.90;;;;;;5031020;28;20497;-52
2023/07/05 04:07:51;;;;;;;7.93;4.27;;;14.80;99.90;;;;;;5027052;28;20537;-52
2023/07/05 04:10:17;;;;;;;10.10;4.27;;;14.80;99.90;;;;;;5025256;28;20482;-51
2023/07/05 04:12:44;;;;;;;12.37;3.67;;;14.80;99.90;;;;;;5039404;28;20518;-53
2023/07/05 04:15:11;;;;;;;15.00;4.07;;;14.90;99.90;;;;;;5029153;28;20550;-51
2023/07/05 04:17:37;;;;;;;10.77;5.00;;;14.90;99.90;;;;;;5031974;28;20494;-52
2023/07/05 04:20:07;;;;;;;6.27;3.70;;;14.90;99.90;;;;;;5022994;28;20533;-53
2023/07/05 04:22:39;;;;;;;8.80;4.50;;;14.90;99.90;;;;;;5023097;28;20513;-53
2023/07/05 04:25:06;;;;;;;7.20;4.33;;;14.90;99.90;;;;;;5027989;28;20462;-52
2023/07/05 04:27:33;;;;;;;12.37;4.07;;;15.00;99.90;;;;;;5018770;28;20539;-52
2023/07/05 04:29:59;;;;;;;7.50;4.40;;;15.00;99.90;;;;;;5019469;28;20487;-52
2023/07/05 04:32:26;;;;;;;5.93;4.20;;;15.00;99.90;;;;;;5025337;28;20517;-52
2023/07/05 04:34:53;;;;;;;14.30;4.07;;;15.00;99.90;;;;;;5023028;28;20544;-52
2023/07/05 04:37:21;;;;;;;6.23;4.30;;;15.10;99.90;;;;;;5025402;28;20486;-52
2023/07/05 04:39:47;;;;;;;6.10;4.20;;;15.10;99.90;;;;;;5030344;28;21047;-52
2023/07/05 04:42:14;;;;;;;14.60;4.80;;;15.20;99.90;;;;;;5026273;28;20517;-53
2023/07/05 04:44:40;;;;;;;8.20;4.73;;;15.30;99.90;;;;;;5022355;28;20487;-52
2023/07/05 04:47:07;;;;;;;9.43;4.37;;;15.30;99.90;;;;;;5019679;28;20633;-52
2023/07/05 04:49:34;;;;;;;9.20;4.00;;;15.40;99.90;;;;;;5018372;28;20474;-52
2023/07/05 04:52:00;;;;;;;8.20;4.07;;;15.50;99.90;;;;;;5024505;28;21045;-52
2023/07/05 04:54:28;;;;;;;6.70;3.77;;;15.60;99.90;;;;;;5044107;28;20508;-52
2023/07/05 04:56:56;;;;;;;9.40;4.17;;;15.70;99.90;;;;;;5030876;28;20553;-52
2023/07/05 04:59:22;;;;;;;7.63;3.97;;;15.80;99.90;;;;;;5027907;28;20580;-52
2023/07/05 05:01:49;;;;;;;10.60;4.13;;;15.80;99.90;;;;;;5024667;28;20510;-52
2023/07/05 05:04:15;;;;;;;8.10;4.37;;;15.90;99.90;;;;;;5025756;28;20549;-52
2023/07/05 05:06:43;;;;;;;13.13;4.97;;;16.00;99.90;;;;;;5024321;28;20578;-53
2023/07/05 05:09:09;;;;;;;7.10;3.43;;;16.00;99.90;;;;;;5022587;28;20474;-53
2023/07/05 05:11:37;;;;;;;17.77;4.77;;;16.10;99.90;;;;;;5028137;28;20573;-52
2023/07/05 05:14:03;;;;;;;10.60;4.03;;;16.20;99.90;;;;;;5023773;28;20498;-53
2023/07/05 05:16:30;;;;;;;11.83;4.40;;;16.20;99.90;;;;;;5024052;28;20520;-53
2023/07/05 05:18:57;;;;;;;21.00;4.40;;;16.20;99.90;;;;;;5024506;28;21000;-52
2023/07/05 05:21:23;;;;;;;15.00;4.13;;;16.30;99.90;;;;;;5019511;28;20593;-52
2023/07/05 05:23:50;;;;;;;6.23;4.23;;;16.30;99.90;;;;;;5025344;28;20552;-52
2023/07/05 05:26:16;;;;;;;10.53;4.30;;;16.40;97.50;;;;;;5019974;28;21032;-53
2023/07/05 05:28:44;;;;;;;9.47;4.00;;;16.50;24.70;;;;;;5018448;28;20550;-52
2023/07/05 05:31:11;;;;;;;13.40;5.10;;;16.50;20.30;;;;;;5027867;28;20889;-52
2023/07/05 05:33:38;;;;;;;7.50;4.10;;;16.60;31.60;;;;;;5030688;28;20541;-51
2023/07/05 05:36:06;;;;;;;12.43;4.13;;;16.70;37.70;;;;;;5030725;28;20457;-52
2023/07/05 05:38:35;;;;;;;20.87;4.10;;;16.70;38.80;;;;;;5035321;28;20494;-51
2023/07/05 05:41:03;;;;;;;6.97;3.90;;;16.80;48.20;;;;;;5024586;28;20490;-51
2023/07/05 05:43:30;;;;;;;9.60;4.23;;;16.80;44.50;;;;;;5030164;28;20486;-51
2023/07/05 05:45:58;;;;;;;9.30;4.50;;;16.80;51.60;;;;;;5047448;28;20500;-50
2023/07/05 05:48:25;;;;;;;9.93;4.73;;;16.90;51.20;;;;;;5031283;28;20521;-51
2023/07/05 05:50:51;;;;;;;14.90;4.50;;;17.00;54.00;;;;;;5027010;28;20546;-51
2023/07/05 05:53:18;;;;;;;11.90;4.90;;;17.00;54.40;;;;;;5029732;28;21038;-51
2023/07/05 05:55:44;;;;;;;12.23;5.03;;;17.10;56.70;;;;;;5027956;28;20502;-51
2023/07/05 05:58:11;;;;;;;5.87;4.13;;;17.20;70.20;;;;;;5032829;28;20489;-50
2023/07/05 06:00:38;;;;;;;12.33;4.77;;;17.20;61.00;;;;;;5035422;28;20514;-50
2023/07/05 06:03:06;;;;;;;8.53;4.23;;;17.20;54.60;;;;;;5032455;28;20642;-50
2023/07/05 06:05:34;;;;;;;9.17;4.53;;;17.20;64.10;;;;;;5027655;28;20494;-50
2023/07/05 06:08:01;;;;;;;12.40;5.10;;;17.20;55.10;;;;;;5030612;28;20904;-51
2023/07/05 06:10:27;;;;;;;12.03;5.07;;;17.30;47.90;;;;;;5037425;28;20543;-50
2023/07/05 06:12:54;;;;;;;6.57;4.40;;;17.30;57.70;;;;;;5030792;28;21114;-50
2023/07/05 06:15:20;;;;;;;10.87;5.30;;;17.40;54.70;;;;;;5030890;28;20557;-51
2023/07/05 06:17:47;;;;;;;11.20;4.30;;;17.40;60.90;;;;;;5029596;28;20486;-51
2023/07/05 06:20:15;;;;;;;14.53;4.60;;;17.50;65.30;;;;;;5033285;28;20478;-51
2023/07/05 06:22:41;;;;;;;6.20;4.63;;;17.50;67.50;;;;;;5027869;28;21003;-50
2023/07/05 06:25:10;;;;;;;12.90;5.43;;;17.50;74.90;;;;;;5027676;28;20549;-50
2023/07/05 06:27:37;;;;;;;13.37;5.57;;;17.60;78.40;;;;;;5028255;28;20546;-50
2023/07/05 06:30:05;;;;;;;12.20;5.20;;;17.70;80.40;;;;;;5021494;28;20932;-51
2023/07/05 06:32:32;;;;;;;13.87;6.13;;;17.70;81.90;;;;;;5022068;28;21051;-51
2023/07/05 06:34:59;;;;;;;19.77;5.40;;;17.70;74.80;;;;;;5025761;28;20458;-51
2023/07/05 06:37:27;;;;;;;9.80;5.57;;;17.70;82.00;;;;;;5028554;28;20486;-50
2023/07/05 06:39:53;;;;;;;11.00;6.40;;;17.80;87.70;;;;;;5030286;28;20576;-50
2023/07/05 06:42:20;;;;;;;12.30;5.70;;;17.80;88.60;;;;;;5028954;28;20503;-49
2023/07/05 06:44:46;;;;;;;10.23;5.63;;;17.80;82.50;;;;;;5024519;28;20550;-50
2023/07/05 06:47:13;;;;;;;9.17;5.90;;;17.90;88.00;;;;;;5033237;28;20494;-50
2023/07/05 06:49:39;;;;;;;21.43;6.60;;;17.80;84.70;;;;;;5030094;28;20566;-50
2023/07/05 06:52:07;;;;;;;9.33;5.60;;;17.90;83.80;;;;;;5027297;28;20502;-50
2023/07/05 06:54:35;;;;;;;8.90;5.83;;;17.90;84.10;;;;;;5025789;28;20473;-50
2023/07/05 06:57:02;;;;;;;12.23;5.87;;;17.90;82.40;;;;;;5035321;28;20463;-50
2023/07/05 06:59:28;;;;;;;9.63;6.20;;;17.90;83.10;;;;;;5030148;28;20518;-50
2023/07/05 07:01:55;;;;;;;13.53;6.00;;;18.00;87.20;;;;;;5030497;28;20478;-50
2023/07/05 07:04:21;;;;;;;10.70;5.87;;;18.00;86.20;;;;;;5022331;28;20513;-50
2023/07/05 07:06:48;;;;;;;12.37;6.60;;;18.10;85.30;;;;;;5021041;28;20550;-50
2023/07/05 07:09:14;;;;;;;11.10;6.57;;;18.10;89.10;;;;;;5022530;28;20924;-51
2023/07/05 07:11:42;;;;;;;8.60;5.40;;;18.20;87.50;;;;;;5023038;28;20916;-50
2023/07/05 07:14:09;;;;;;;10.67;6.87;;;18.20;88.10;;;;;;5028325;28;20466;-50
2023/07/05 07:16:35;;;;;;;13.50;6.07;;;18.30;85.40;;;;;;5026480;28;20566;-51
2023/07/05 07:19:02;;;;;;;13.20;6.73;;;18.40;93.40;;;;;;5030351;28;20490;-51
2023/07/05 07:21:30;;;;;;;10.87;7.43;;;18.50;94.00;;;;;;5029719;28;20584;-51
2023/07/05 07:23:57;;;;;;;13.80;7.10;;;18.50;99.50;;;;;;5032396;28;21269;-50
2023/07/05 07:26:25;;;;;;;13.07;5.93;;;18.70;94.80;;;;;;5033418;28;20470;-50
2023/07/05 07:28:54;;;;;;;19.33;6.47;;;18.80;97.00;;;;;;5025792;28;20487;-50
2023/07/05 07:31:24;;;;;;;8.87;6.03;;;19.00;92.40;;;;;;5023886;28;20484;-50
2023/07/05 07:33:52;;;;;;;12.77;8.03;;;19.10;99.90;;;;;;5023619;28;20470;-51
2023/07/05 07:36:21;;;;;;;15.47;7.83;;;19.30;99.90;;;;;;5027541;28;20566;-50
2023/07/05 07:38:48;;;;;;;15.03;7.50;;;19.40;99.90;;;;;;5025034;28;20505;-51
2023/07/05 07:41:16;;;;;;;11.57;7.50;;;19.60;99.90;;;;;;5026298;28;20525;-50
2023/07/05 07:43:43;;;;;;;11.93;8.63;;;19.60;99.90;;;;;;5034436;28;20486;-50
2023/07/05 07:46:13;;;;;;;17.77;8.47;;;19.70;99.90;;;;;;5029814;28;20450;-50
2023/07/05 07:48:42;;;;;;;15.80;7.10;;;19.70;99.90;;;;;;5029989;28;20502;-51
2023/07/05 07:51:09;;;;;;;21.10;9.57;;;19.70;99.90;;;;;;5030161;28;20501;-50
2023/07/05 07:53:35;;;;;;;14.33;8.90;;;19.80;99.90;;;;;;5025692;28;20991;-51
2023/07/05 07:56:11;;;;;;;11.37;8.73;;;19.80;99.90;;;;;;5030057;28;20454;-51
2023/07/05 07:58:38;;;;;;;13.00;8.93;;;19.90;99.90;;;;;;5026943;28;20960;-50
2023/07/05 08:01:12;;;;;;;14.00;9.40;;;20.00;99.90;;;;;;5031076;28;20515;-51
2023/07/05 08:03:39;;;;;;;14.40;8.97;;;20.10;99.90;;;;;;5023576;28;20458;-50
2023/07/05 08:06:06;;;;;;;15.80;9.53;;;20.20;99.90;;;;;;5023286;28;20550;-50
2023/07/05 08:08:33;;;;;;;15.47;9.73;;;20.20;99.90;;;;;;5026810;28;20498;-51
2023/07/05 08:10:59;;;;;;;20.83;10.70;;;20.30;99.90;;;;;;5018383;28;20491;-50
2023/07/05 08:13:26;;;;;;;11.63;9.60;;;20.30;99.90;;;;;;5064536;22;22241;-51
2023/07/05 08:15:52;;;;;;;17.73;11.00;;;20.30;99.90;;;;;;5063782;28;20457;-51
2023/07/05 08:18:20;;;;;;;15.50;9.80;;;20.40;99.90;;;;;;5061696;28;20572;-51
2023/07/05 08:20:46;;;;;;;16.23;10.73;;;20.40;99.90;;;;;;5061779;28;20568;-51
2023/07/05 08:23:13;;;;;;;19.60;11.43;;;20.40;99.90;;;;;;5048265;28;20573;-52
2023/07/05 08:25:42;;;;;;;15.20;10.60;;;20.40;99.90;;;;;;5036555;28;20561;-51
2023/07/05 08:28:10;;;;;;;18.00;11.70;;;20.40;99.90;;;;;;5039376;28;20462;-51
2023/07/05 08:30:38;;;;;;;19.47;10.80;;;20.40;99.90;;;;;;5035543;28;20490;-51
2023/07/05 08:33:06;;;;;;;18.83;10.97;;;20.40;99.90;;;;;;5034451;28;20570;-51
2023/07/05 08:35:34;;;;;;;16.43;11.33;;;20.40;99.90;;;;;;5035240;28;20470;-51
2023/07/05 08:38:01;;;;;;;28.33;12.10;;;20.50;99.90;;;;;;5042721;28;20470;-52
2023/07/05 08:40:33;;;;;;;16.00;11.77;;;20.40;99.90;;;;;;5041656;28;20582;-50
2023/07/05 08:43:05;;;;;;;24.20;12.03;;;20.50;99.90;;;;;;5042280;28;20478;-51
2023/07/05 08:45:36;;;;;;;17.20;13.10;;;20.50;99.90;;;;;;5038093;28;20521;-51
2023/07/05 08:48:06;;;;;;;22.67;13.30;;;20.40;99.90;;;;;;5036778;28;20490;-52
2023/07/05 08:50:38;;;;;;;18.70;12.63;;;20.40;99.90;;;;;;5036873;28;20461;-51
2023/07/05 08:53:09;;;;;;;29.93;13.00;;;20.40;99.90;;;;;;5039501;28;21969;-51
2023/07/05 08:55:49;;;;;;;18.63;12.63;;;20.40;99.90;;;;;;5040066;28;20541;-51
2023/07/05 08:58:22;;;;;;;18.23;13.53;;;20.40;99.90;;;;;;5038989;28;20484;-51
2023/07/05 09:00:53;;;;;;;16.67;13.40;;;20.40;99.90;;;;;;5041932;28;20485;-52
2023/07/05 09:03:23;;;;;;;19.20;13.87;;;20.40;99.90;;;;;;5039357;28;20493;-59
2023/07/05 09:05:59;;;;;;;19.53;11.60;;;20.50;99.90;;;;;;5040519;28;20466;-52
2023/07/05 09:08:35;;;;;;;20.70;14.10;;;20.60;99.90;;;;;;5048432;28;20481;-52
2023/07/05 09:11:10;;;;;;;19.53;13.70;;;20.60;99.90;;;;;;5037703;28;20478;-51
2023/07/05 09:13:39;;;;;;;18.33;12.20;;;20.70;99.90;;;;;;5035062;28;20521;-51
2023/07/05 09:16:13;;;;;;;15.73;12.83;;;20.80;99.90;;;;;;5038998;28;20459;-51
2023/07/05 09:18:57;;;;;;;15.47;12.43;;;20.90;99.90;;;;;;5034466;28;20490;-51
2023/07/05 09:21:32;;;;;;;21.73;11.97;;;20.90;99.90;;;;;;5032840;28;20570;-51
2023/07/05 09:24:08;;;;;;;19.30;12.07;;;20.90;99.90;;;;;;5044680;28;20493;-52
2023/07/05 09:26:38;;;;;;;18.20;11.77;;;21.00;99.90;;;;;;5032680;28;20464;-50
2023/07/05 09:29:13;;;;;;;18.63;11.37;;;21.00;99.90;;;;;;5033652;28;20516;-52
2023/07/05 09:31:40;;;;;;;12.93;10.33;;;20.90;99.90;;;;;;5036355;28;20450;-51
2023/07/05 09:34:28;;;;;;;13.70;10.70;;;21.00;99.90;;;;;;5040303;28;20545;-51
2023/07/05 09:36:56;;;;;;;16.20;10.70;;;21.10;99.90;;;;;;5031828;28;20840;-51
2023/07/05 09:39:32;;;;;;;19.80;10.23;;;21.20;99.90;;;;;;5039443;28;21009;-51
2023/07/05 09:42:02;;;;;;;12.90;9.93;;;21.20;99.90;;;;;;5040407;28;21061;-51
2023/07/05 09:44:30;;;;;;;11.87;10.23;;;21.20;99.90;;;;;;5039608;28;20469;-51
2023/07/05 09:46:57;;;;;;;13.90;10.77;;;21.30;99.90;;;;;;5031655;28;20932;-52
2023/07/05 09:49:26;;;;;;;10.40;9.30;;;21.40;99.90;;;;;;5027014;28;20454;-52
2023/07/05 09:51:54;;;;;;;12.00;10.20;;;21.60;99.90;;;;;;5032212;28;20537;-51
2023/07/05 09:54:25;;;;;;;10.77;9.60;;;21.90;99.90;;;;;;5037715;28;20485;-51
2023/07/05 09:56:56;;;;;;;16.73;10.67;;;21.90;99.90;;;;;;5038676;28;20458;-51
2023/07/05 09:59:23;;;;;;;9.70;8.70;;;22.00;99.90;;;;;;5033180;28;20561;-52
2023/07/05 10:01:53;;;;;;;8.87;7.70;;;22.10;99.90;;;;;;5034192;28;21530;-51
2023/07/05 10:04:26;;;;;;;10.47;8.30;;;22.10;99.90;;;;;;5039373;28;20531;-51
2023/07/05 10:06:53;;;;;;;9.97;8.80;;;22.00;99.90;;;;;;5036787;28;20458;-51
2023/07/05 10:09:24;;;;;;;12.40;8.40;;;22.00;99.90;;;;;;5038423;28;20549;-52
2023/07/05 10:11:53;;;;;;;12.53;8.97;;;21.90;99.90;;;;;;5045600;28;20515;-51
2023/07/05 10:14:21;;;;;;;11.13;8.97;;;21.70;99.90;;;;;;5033450;28;20470;-51
2023/07/05 10:16:53;;;;;;;10.43;8.57;;;21.70;99.90;;;;;;5036240;28;20462;-51
2023/07/05 10:19:21;;;;;;;11.67;8.57;;;21.90;99.90;;;;;;5028990;28;20487;-50
2023/07/05 10:21:48;;;;;;;13.93;9.80;;;22.10;99.90;;;;;;5021726;28;20613;-51
2023/07/05 10:24:18;;;;;;;11.87;8.60;;;22.50;99.90;;;;;;5025915;28;20588;-51
2023/07/05 10:26:50;;;;;;;11.33;8.77;;;23.30;99.90;;;;;;5027083;28;20898;-51
2023/07/05 10:29:21;;;;;;;10.60;9.10;;;23.60;99.90;;;;;;5038858;28;20461;-51
2023/07/05 10:31:54;;;;;;;20.43;9.10;;;23.40;99.90;;;;;;5035669;28;20548;-51
2023/07/05 10:34:23;;;;;;;10.20;9.10;;;23.90;99.90;;;;;;5040735;28;20872;-51
2023/07/05 10:36:51;;;;;;;13.90;9.57;;;23.90;99.90;;;;;;5048183;28;20442;-51
2023/07/05 10:39:22;;;;;;;10.10;8.63;;;23.80;99.90;;;;;;5034272;28;20464;-52
2023/07/05 10:41:52;;;;;;;10.83;8.77;;;23.90;99.90;;;;;;5038470;28;20494;-52
2023/07/05 10:44:26;;;;;;;9.83;8.10;;;23.60;99.90;;;;;;5050357;28;20505;-52
2023/07/05 10:46:54;;;;;;;14.63;9.03;;;23.50;99.90;;;;;;5036473;28;20462;-51
2023/07/05 10:49:22;;;;;;;9.30;8.40;;;23.20;99.90;;;;;;5052726;28;20446;-51
2023/07/05 10:51:52;;;;;;;12.13;7.97;;;23.10;1.40;;;;;;5053194;28;20565;-51
2023/07/05 10:54:25;;;;;;;14.17;7.80;;;22.90;99.90;;;;;;5044347;28;21020;-52
2023/07/05 10:56:54;;;;;;;8.97;8.07;;;22.80;99.90;;;;;;5043847;28;20508;-51
2023/07/05 10:59:27;;;;;;;12.70;7.50;;;22.90;99.90;;;;;;5045647;28;20494;-51
2023/07/05 11:01:58;;;;;;;10.33;8.40;;;23.00;99.90;;;;;;5028328;28;20478;-51
2023/07/05 11:04:28;;;;;;;14.07;8.10;;;23.00;99.90;;;;;;5036803;28;20462;-51
2023/07/05 11:07:01;;;;;;;9.63;7.13;;;23.00;99.90;;;;;;5034855;28;20463;-51
2023/07/05 11:09:31;;;;;;;15.00;9.00;;;23.00;99.90;;;;;;5031546;28;20463;-50
2023/07/05 11:12:03;;;;;;;15.03;8.30;;;22.90;99.90;;;;;;5029171;28;20869;-52
2023/07/05 11:14:31;;;;;;;9.50;7.30;;;22.80;99.90;;;;;;5039603;28;20461;-51
2023/07/05 11:16:59;;;;;;;10.53;7.60;;;22.90;99.90;;;;;;5038935;28;20499;-51
2023/07/05 11:19:29;;;;;;;19.23;7.00;;;22.80;99.90;;;;;;5026544;28;20638;-51
2023/07/05 11:21:55;;;;;;;9.63;5.97;;;22.80;99.90;;;;;;5028672;28;21122;-51
2023/07/05 11:24:43;;;;;;;11.90;6.27;;;22.90;99.90;;;;;;5037945;28;20514;-51
2023/07/05 11:27:52;;;;;;;7.83;5.83;;;23.10;99.90;;;;;;5034720;28;20450;-51
2023/07/05 11:30:38;;;;;;;9.70;5.53;;;23.20;99.90;;;;;;4992948;28;20483;-52
2023/07/05 11:33:26;;;;;;;14.43;6.57;;;23.40;99.90;;;;;;5033724;28;20585;-51
2023/07/05 11:35:54;;;;;;;8.80;5.43;;;23.50;99.90;;;;;;5032013;28;20508;-51
2023/07/05 11:38:55;;;;;;;5.57;4.83;;;23.40;99.90;;;;;;5026469;28;20462;-51
2023/07/05 11:41:30;;;;;;;9.33;4.73;;;23.40;99.90;;;;;;5033866;28;21008;-51
2023/07/05 11:44:01;;;;;;;16.77;5.50;;;23.50;99.90;;;;;;5027904;28;20498;-51
2023/07/05 11:46:39;;;;;;;6.40;5.00;;;23.40;99.90;;;;;;5035092;28;20515;-51
2023/07/05 11:49:27;;;;;;;5.40;4.67;;;23.40;99.90;;;;;;5029612;28;20485;-50
2023/07/05 11:51:58;;;;;;;5.20;4.70;;;23.30;99.90;;;;;;5037881;28;20457;-51
2023/07/05 11:54:31;;;;;;;6.17;4.40;;;23.30;99.90;;;;;;5034702;28;20455;-51
2023/07/05 11:57:02;;;;;;;6.90;3.77;;;23.30;99.90;;;;;;5039109;28;20581;-51
2023/07/05 11:59:35;;;;;;;5.70;4.50;;;23.30;99.90;;;;;;5034335;28;20573;-51
2023/07/05 12:02:26;;;;;;;5.00;4.60;;;23.20;99.90;;;;;;5031527;28;20564;-50
2023/07/05 12:04:55;;;;;;;3.50;3.20;;;23.20;99.90;;;;;;5032983;28;20565;-51
2023/07/05 12:07:24;;;;;;;4.40;3.57;;;23.30;99.90;;;;;;5034976;28;20955;-50
2023/07/05 12:09:55;;;;;;;3.10;2.90;;;23.20;99.90;;;;;;5027782;28;20463;-50
2023/07/05 12:12:22;;;;;;;4.00;3.23;;;23.20;99.90;;;;;;5044816;28;20496;-50
2023/07/05 12:14:51;;;;;;;3.53;3.23;;;23.20;99.90;;;;;;5044631;28;20509;-51
2023/07/05 12:17:21;;;;;;;9.73;3.40;;;23.20;99.90;;;;;;5044550;28;20485;-51
2023/07/05 12:19:48;;;;;;;7.13;3.10;;;23.40;99.90;;;;;;5038479;28;20458;-52
2023/07/05 12:22:19;;;;;;;5.67;4.00;;;23.80;99.90;;;;;;5032412;28;20543;-51
2023/07/05 12:24:49;;;;;;;6.60;3.60;;;24.00;99.90;;;;;;5030264;28;20550;-51
2023/07/05 12:27:21;;;;;;;11.60;3.23;;;23.90;99.90;;;;;;5045845;28;20504;-52
2023/07/05 12:29:51;;;;;;;4.80;3.70;;;23.70;99.90;;;;;;5037932;28;20477;-51
2023/07/05 12:32:20;;;;;;;3.13;2.90;;;23.60;99.90;;;;;;5034674;28;20569;-51
2023/07/05 12:34:47;;;;;;;5.07;3.37;;;23.50;99.90;;;;;;5044789;28;22243;-51
2023/07/05 12:37:32;;;;;;;4.40;2.97;;;23.40;99.90;;;;;;5039381;28;20490;-51
2023/07/05 12:40:13;;;;;;;4.60;2.90;;;23.60;99.90;;;;;;5036003;28;20573;-51
2023/07/05 12:42:48;;;;;;;3.73;2.63;;;23.80;99.90;;;;;;5043751;28;20508;-51
2023/07/05 12:45:18;;;;;;;2.57;2.33;;;23.90;99.90;;;;;;5040936;28;20488;-51
2023/07/05 12:47:44;;;;;;;4.30;3.10;;;24.00;99.90;;;;;;5043621;28;20550;-51
2023/07/05 12:50:11;;;;;;;7.97;2.70;;;24.00;99.90;;;;;;5045192;28;20549;-51
2023/07/05 12:52:38;;;;;;;2.83;2.53;;;23.90;99.90;;;;;;5035934;28;20561;-50